sensor_id;sensor_type;location;lat;lon;timestamp;pressure;altitude;pressure_sealevel;temperature;humidity
11268;BME280;49397;47.474;9.416;2022-12-10T00:02:19;94084.94;;;1.31;100.00
11268;BME280;49397;47.474;9.416;2022-12-10T00:04:45;94087.03;;;1.34;100.00
11268;BME280;49397;47.474;9.416;2022-12-10T00:07:10;94090.22;;;1.36;100.00
11268;BME280;49397;47.474;9.416;2022-12-10T00:09:36;94088.41;;;1.32;100.00
11268;BME280;49397;47.474;9.416;2022-12-10T00:12:01;94087.84;;;1.35;100.00
11268;BME280;49397;47.474;9.416;2022-12-10T00:14:27;94077.22;;;1.30;100.00
11268;BME280;49397;47.474;9.416;2022-12-10T00:16:52;94072.72;;;1.25;100.00
11268;BME280;49397;47.474;9.416;2022-12-10T00:19:18;94078.31;;;1.29;100.00
11268;BME280;49397;47.474;9.416;2022-12-10T00:21:44;94060.28;;;1.16;100.00
11268;BME280;49397;47.474;9.416;2022-12-10T00:24:10;94078.97;;;1.39;100.00
11268;BME280;49397;47.474;9.416;2022-12-10T00:26:37;94072.56;;;1.40;100.00
11268;BME280;49397;47.474;9.416;2022-12-10T00:29:05;94061.78;;;1.45;100.00
11268;BME280;49397;47.474;9.416;2022-12-10T00:31:33;94047.47;;;1.36;100.00
11268;BME280;49397;47.474;9.416;2022-12-10T00:34:03;94058.09;;;1.41;100.00
11268;BME280;49397;47.474;9.416;2022-12-10T00:36:32;94065.84;;;1.43;100.00
11268;BME280;49397;47.474;9.416;2022-12-10T00:38:58;94057.59;;;1.39;100.00
11268;BME280;49397;47.474;9.416;2022-12-10T00:41:24;94058.03;;;1.46;100.00
11268;BME280;49397;47.474;9.416;2022-12-10T00:43:50;94056.53;;;1.59;100.00
11268;BME280;49397;47.474;9.416;2022-12-10T00:46:17;94052.84;;;1.55;100.00
11268;BME280;49397;47.474;9.416;2022-12-10T00:48:43;94055.94;;;1.43;100.00
11268;BME280;49397;47.474;9.416;2022-12-10T00:51:17;94055.09;;;1.48;100.00
11268;BME280;49397;47.474;9.416;2022-12-10T00:53:44;94058.56;;;1.48;100.00
11268;BME280;49397;47.474;9.416;2022-12-10T00:56:12;94063.81;;;1.53;100.00
11268;BME280;49397;47.474;9.416;2022-12-10T00:58:38;94064.81;;;1.39;100.00
11268;BME280;49397;47.474;9.416;2022-12-10T01:03:36;94047.06;;;1.48;100.00
11268;BME280;49397;47.474;9.416;2022-12-10T01:06:10;94049.31;;;1.60;100.00
11268;BME280;49397;47.474;9.416;2022-12-10T01:08:37;94059.28;;;1.54;100.00
11268;BME280;49397;47.474;9.416;2022-12-10T01:11:02;94058.28;;;1.50;100.00
11268;BME280;49397;47.474;9.416;2022-12-10T01:13:28;94063.44;;;1.41;100.00
11268;BME280;49397;47.474;9.416;2022-12-10T01:15:53;94054.69;;;1.36;100.00
11268;BME280;49397;47.474;9.416;2022-12-10T01:18:19;94057.16;;;1.32;100.00
11268;BME280;49397;47.474;9.416;2022-12-10T01:20:44;94072.56;;;1.40;100.00
11268;BME280;49397;47.474;9.416;2022-12-10T01:23:10;94069.88;;;1.40;100.00
11268;BME280;49397;47.474;9.416;2022-12-10T01:25:35;94068.03;;;1.36;100.00
11268;BME280;49397;47.474;9.416;2022-12-10T01:28:01;94070.88;;;1.44;100.00
11268;BME280;49397;47.474;9.416;2022-12-10T01:30:26;94075.06;;;1.50;100.00
11268;BME280;49397;47.474;9.416;2022-12-10T01:32:52;94062.47;;;1.56;100.00
11268;BME280;49397;47.474;9.416;2022-12-10T01:35:17;94056.19;;;1.47;100.00
11268;BME280;49397;47.474;9.416;2022-12-10T01:37:42;94064.56;;;1.59;100.00
11268;BME280;49397;47.474;9.416;2022-12-10T01:40:08;94066.47;;;1.53;100.00
11268;BME280;49397;47.474;9.416;2022-12-10T01:42:34;94054.88;;;1.63;100.00
11268;BME280;49397;47.474;9.416;2022-12-10T01:45:04;94047.59;;;1.69;100.00
11268;BME280;49397;47.474;9.416;2022-12-10T01:47:31;94064.25;;;1.61;100.00
11268;BME280;49397;47.474;9.416;2022-12-10T01:49:57;94073.84;;;1.62;100.00
11268;BME280;49397;47.474;9.416;2022-12-10T01:52:22;94071.25;;;1.56;100.00
11268;BME280;49397;47.474;9.416;2022-12-10T01:54:48;94073.72;;;1.53;100.00
11268;BME280;49397;47.474;9.416;2022-12-10T01:57:16;94065.53;;;1.44;100.00
11268;BME280;49397;47.474;9.416;2022-12-10T01:59:43;94078.56;;;1.51;100.00
11268;BME280;49397;47.474;9.416;2022-12-10T02:02:12;94069.53;;;1.47;100.00
11268;BME280;49397;47.474;9.416;2022-12-10T02:05:18;94066.19;;;1.55;100.00
11268;BME280;49397;47.474;9.416;2022-12-10T02:16:40;94069.53;;;1.47;100.00
11268;BME280;49397;47.474;9.416;2022-12-10T02:19:25;94074.31;;;1.50;100.00
11268;BME280;49397;47.474;9.416;2022-12-10T02:21:57;94074.31;;;1.50;100.00
11268;BME280;49397;47.474;9.416;2022-12-10T02:24:28;94059.78;;;1.37;100.00
11268;BME280;49397;47.474;9.416;2022-12-10T02:27:16;94071.41;;;1.46;100.00
11268;BME280;49397;47.474;9.416;2022-12-10T02:29:46;94078.03;;;1.49;100.00
11268;BME280;49397;47.474;9.416;2022-12-10T02:32:18;94079.41;;;1.46;100.00
11268;BME280;49397;47.474;9.416;2022-12-10T02:34:57;94061.88;;;1.40;100.00
11268;BME280;49397;47.474;9.416;2022-12-10T02:37:27;94058.03;;;1.46;100.00
11268;BME280;49397;47.474;9.416;2022-12-10T02:39:56;94064.91;;;1.52;100.00
11268;BME280;49397;47.474;9.416;2022-12-10T02:42:24;94061.22;;;1.48;100.00
11268;BME280;49397;47.474;9.416;2022-12-10T02:44:52;94048.16;;;1.47;100.00
11268;BME280;49397;47.474;9.416;2022-12-10T02:47:19;94049.88;;;1.38;100.00
11268;BME280;49397;47.474;9.416;2022-12-10T02:49:51;94045.56;;;1.42;100.00
11268;BME280;49397;47.474;9.416;2022-12-10T02:52:19;94039.91;;;1.43;100.00
11268;BME280;49397;47.474;9.416;2022-12-10T02:54:47;94041.16;;;1.51;100.00
11268;BME280;49397;47.474;9.416;2022-12-10T03:00:20;94044.91;;;1.69;100.00
11268;BME280;49397;47.474;9.416;2022-12-10T03:05:38;94023.94;;;1.57;100.00
11268;BME280;49397;47.474;9.416;2022-12-10T03:08:25;94038.75;;;1.68;100.00
11268;BME280;49397;47.474;9.416;2022-12-10T03:11:01;94040.38;;;1.69;100.00
11268;BME280;49397;47.474;9.416;2022-12-10T03:13:37;94042.31;;;1.64;100.00
11268;BME280;49397;47.474;9.416;2022-12-10T03:16:04;94047.66;;;1.64;100.00
11268;BME280;49397;47.474;9.416;2022-12-10T03:18:32;94046.56;;;1.65;100.00
11268;BME280;49397;47.474;9.416;2022-12-10T03:21:03;94043.28;;;1.68;100.00
11268;BME280;49397;47.474;9.416;2022-12-10T03:23:32;94044.31;;;1.72;100.00
11268;BME280;49397;47.474;9.416;2022-12-10T03:25:58;94054.78;;;1.68;100.00
11268;BME280;49397;47.474;9.416;2022-12-10T03:28:25;94036.25;;;1.58;100.00
11268;BME280;49397;47.474;9.416;2022-12-10T03:30:51;94041.13;;;1.70;100.00
11268;BME280;49397;47.474;9.416;2022-12-10T03:33:18;94046.56;;;1.65;100.00
11268;BME280;49397;47.474;9.416;2022-12-10T03:35:44;94049.22;;;1.65;100.00
11268;BME280;49397;47.474;9.416;2022-12-10T03:38:11;94056.88;;;1.71;100.00
11268;BME280;49397;47.474;9.416;2022-12-10T03:40:37;94048.75;;;1.63;100.00
11268;BME280;49397;47.474;9.416;2022-12-10T03:43:03;94041.84;;;1.56;100.00
11268;BME280;49397;47.474;9.416;2022-12-10T03:45:28;94054.88;;;1.63;100.00
11268;BME280;49397;47.474;9.416;2022-12-10T03:47:54;94049.31;;;1.60;100.00
11268;BME280;49397;47.474;9.416;2022-12-10T03:50:19;94048.16;;;1.66;100.00
11268;BME280;49397;47.474;9.416;2022-12-10T03:52:45;94051.84;;;1.70;100.00
11268;BME280;49397;47.474;9.416;2022-12-10T03:55:10;94051.25;;;1.73;100.00
11268;BME280;49397;47.474;9.416;2022-12-10T03:57:36;94055.25;;;1.75;100.00
11268;BME280;49397;47.474;9.416;2022-12-10T04:00:03;94060.22;;;1.82;100.00
11268;BME280;49397;47.474;9.416;2022-12-10T04:02:29;94060.81;;;1.79;100.00
11268;BME280;49397;47.474;9.416;2022-12-10T04:04:55;94052.06;;;1.73;100.00
11268;BME280;49397;47.474;9.416;2022-12-10T04:07:20;94062.69;;;1.78;100.00
11268;BME280;49397;47.474;9.416;2022-12-10T04:09:46;94050.78;;;1.71;100.00
11268;BME280;49397;47.474;9.416;2022-12-10T04:12:11;94073.66;;;1.77;100.00
11268;BME280;49397;47.474;9.416;2022-12-10T04:14:37;94064.56;;;1.78;100.00
11268;BME280;49397;47.474;9.416;2022-12-10T04:17:21;94059.66;;;1.85;100.00
11268;BME280;49397;47.474;9.416;2022-12-10T04:19:47;94041.00;;;1.80;100.00
11268;BME280;49397;47.474;9.416;2022-12-10T04:22:12;94048.38;;;1.88;100.00
11268;BME280;49397;47.474;9.416;2022-12-10T04:24:56;94035.00;;;1.88;100.00
11268;BME280;49397;47.474;9.416;2022-12-10T04:27:40;94046.47;;;1.88;100.00
11268;BME280;49397;47.474;9.416;2022-12-10T04:30:09;94047.34;;;1.84;100.00
11268;BME280;49397;47.474;9.416;2022-12-10T04:32:35;94054.78;;;1.87;100.00
11268;BME280;49397;47.474;9.416;2022-12-10T04:35:00;94053.28;;;1.81;100.00
11268;BME280;49397;47.474;9.416;2022-12-10T04:37:26;94039.78;;;1.72;100.00
11268;BME280;49397;47.474;9.416;2022-12-10T04:39:52;94055.47;;;1.79;100.00
11268;BME280;49397;47.474;9.416;2022-12-10T04:42:19;94059.78;;;1.75;100.00
11268;BME280;49397;47.474;9.416;2022-12-10T04:44:45;94043.59;;;1.66;100.00
11268;BME280;49397;47.474;9.416;2022-12-10T04:47:11;94052.63;;;1.70;100.00
11268;BME280;49397;47.474;9.416;2022-12-10T04:49:37;94042.81;;;1.66;100.00
11268;BME280;49397;47.474;9.416;2022-12-10T04:52:04;94038.75;;;1.68;100.00
11268;BME280;49397;47.474;9.416;2022-12-10T04:54:30;94046.28;;;1.85;100.00
11268;BME280;49397;47.474;9.416;2022-12-10T04:56:56;94050.91;;;1.79;100.00
11268;BME280;49397;47.474;9.416;2022-12-10T04:59:21;94034.72;;;1.71;100.00
11268;BME280;49397;47.474;9.416;2022-12-10T05:01:47;94047.00;;;1.72;100.00
11268;BME280;49397;47.474;9.416;2022-12-10T05:04:15;94036.16;;;1.63;100.00
11268;BME280;49397;47.474;9.416;2022-12-10T05:06:41;94037.69;;;1.69;100.00
11268;BME280;49397;47.474;9.416;2022-12-10T05:09:07;94050.53;;;1.67;100.00
11268;BME280;49397;47.474;9.416;2022-12-10T05:11:33;94045.03;;;1.58;100.00
11268;BME280;49397;47.474;9.416;2022-12-10T05:14:00;94048.66;;;1.68;100.00
11268;BME280;49397;47.474;9.416;2022-12-10T05:16:28;94039.97;;;1.57;100.00
11268;BME280;49397;47.474;9.416;2022-12-10T05:18:55;94044.09;;;1.68;100.00
11268;BME280;49397;47.474;9.416;2022-12-10T05:21:22;94050.25;;;1.69;100.00
11268;BME280;49397;47.474;9.416;2022-12-10T05:23:50;94044.63;;;1.70;100.00
11268;BME280;49397;47.474;9.416;2022-12-10T05:26:21;94040.78;;;1.76;100.00
11268;BME280;49397;47.474;9.416;2022-12-10T05:28:50;94044.63;;;1.70;100.00
11268;BME280;49397;47.474;9.416;2022-12-10T05:33:43;94037.41;;;1.71;100.00
11268;BME280;49397;47.474;9.416;2022-12-10T05:36:11;94053.06;;;1.77;100.00
11268;BME280;49397;47.474;9.416;2022-12-10T05:38:39;94054.38;;;1.80;100.00
11268;BME280;49397;47.474;9.416;2022-12-10T05:41:26;94061.16;;;1.72;100.00
11268;BME280;49397;47.474;9.416;2022-12-10T05:43:54;94058.78;;;1.71;100.00
11268;BME280;49397;47.474;9.416;2022-12-10T05:46:23;94065.19;;;1.70;100.00
11268;BME280;49397;47.474;9.416;2022-12-10T05:48:49;94067.00;;;1.74;100.00
11268;BME280;49397;47.474;9.416;2022-12-10T05:51:18;94078.19;;;1.76;100.00
11268;BME280;49397;47.474;9.416;2022-12-10T05:53:44;94084.13;;;1.73;100.00
11268;BME280;49397;47.474;9.416;2022-12-10T05:56:13;94077.28;;;1.67;100.00
11268;BME280;49397;47.474;9.416;2022-12-10T05:58:40;94078.50;;;1.75;100.00
11268;BME280;49397;47.474;9.416;2022-12-10T06:01:09;94086.28;;;1.71;100.00
11268;BME280;49397;47.474;9.416;2022-12-10T06:03:35;94080.38;;;1.74;100.00
11268;BME280;49397;47.474;9.416;2022-12-10T06:06:00;94070.53;;;1.70;100.00
11268;BME280;49397;47.474;9.416;2022-12-10T06:08:26;94083.13;;;1.69;100.00
11268;BME280;49397;47.474;9.416;2022-12-10T06:10:52;94087.03;;;1.58;100.00
11268;BME280;49397;47.474;9.416;2022-12-10T06:13:19;94088.84;;;1.63;100.00
11268;BME280;49397;47.474;9.416;2022-12-10T06:15:45;94087.97;;;1.67;100.00
11268;BME280;49397;47.474;9.416;2022-12-10T06:18:11;94096.84;;;1.63;100.00
11268;BME280;49397;47.474;9.416;2022-12-10T06:20:38;94098.78;;;1.57;100.00
11268;BME280;49397;47.474;9.416;2022-12-10T06:23:04;94077.41;;;1.57;100.00
11268;BME280;49397;47.474;9.416;2022-12-10T06:25:30;94090.75;;;1.57;100.00
11268;BME280;49397;47.474;9.416;2022-12-10T06:27:56;94098.53;;;1.53;100.00
11268;BME280;49397;47.474;9.416;2022-12-10T06:30:21;94104.28;;;1.47;100.00
11268;BME280;49397;47.474;9.416;2022-12-10T06:32:46;94101.44;;;1.57;100.00
11268;BME280;49397;47.474;9.416;2022-12-10T06:35:12;94109.97;;;1.59;100.00
11268;BME280;49397;47.474;9.416;2022-12-10T06:37:37;94091.34;;;1.54;100.00
11268;BME280;49397;47.474;9.416;2022-12-10T06:40:03;94090.75;;;1.57;100.00
11268;BME280;49397;47.474;9.416;2022-12-10T06:42:29;94094.75;;;1.60;100.00
11268;BME280;49397;47.474;9.416;2022-12-10T06:44:55;94101.31;;;1.67;100.00
11268;BME280;49397;47.474;9.416;2022-12-10T06:47:20;94109.91;;;1.64;100.00
11268;BME280;49397;47.474;9.416;2022-12-10T06:49:46;94108.31;;;1.63;100.00
11268;BME280;49397;47.474;9.416;2022-12-10T06:52:11;94114.53;;;1.58;100.00
11268;BME280;49397;47.474;9.416;2022-12-10T06:54:37;94100.16;;;1.54;100.00
11268;BME280;49397;47.474;9.416;2022-12-10T06:57:02;94119.59;;;1.60;100.00
11268;BME280;49397;47.474;9.416;2022-12-10T06:59:28;94120.22;;;1.52;100.00
11268;BME280;49397;47.474;9.416;2022-12-10T07:01:53;94116.69;;;1.56;100.00
11268;BME280;49397;47.474;9.416;2022-12-10T07:04:19;94102.78;;;1.36;100.00
11268;BME280;49397;47.474;9.416;2022-12-10T07:06:44;94102.56;;;1.32;100.00
11268;BME280;49397;47.474;9.416;2022-12-10T07:09:10;94107.78;;;1.42;100.00
11268;BME280;49397;47.474;9.416;2022-12-10T07:11:36;94103.97;;;1.25;100.00
11268;BME280;49397;47.474;9.416;2022-12-10T07:14:02;94115.19;;;1.27;100.00
11268;BME280;49397;47.474;9.416;2022-12-10T07:16:30;94114.41;;;1.26;100.00
11268;BME280;49397;47.474;9.416;2022-12-10T07:18:57;94115.47;;;1.25;100.00
11268;BME280;49397;47.474;9.416;2022-12-10T07:21:28;94114.66;;;1.25;100.00
11268;BME280;49397;47.474;9.416;2022-12-10T07:23:56;94120.25;;;1.28;100.00
11268;BME280;49397;47.474;9.416;2022-12-10T07:26:24;94129.63;;;1.26;100.00
11268;BME280;49397;47.474;9.416;2022-12-10T07:28:50;94128.97;;;1.15;100.00
11268;BME280;49397;47.474;9.416;2022-12-10T07:31:15;94122.25;;;1.18;100.00
11268;BME280;49397;47.474;9.416;2022-12-10T07:33:41;94125.13;;;1.21;100.00
11268;BME280;49397;47.474;9.416;2022-12-10T07:36:08;94128.00;;;1.25;100.00
11268;BME280;49397;47.474;9.416;2022-12-10T07:38:34;94118.47;;;1.19;100.00
11268;BME280;49397;47.474;9.416;2022-12-10T07:41:08;94126.91;;;1.31;100.00
11268;BME280;49397;47.474;9.416;2022-12-10T07:43:35;94129.00;;;1.34;100.00
11268;BME280;49397;47.474;9.416;2022-12-10T07:46:08;94130.06;;;1.33;100.00
11268;BME280;49397;47.474;9.416;2022-12-10T07:48:35;94124.72;;;1.33;100.00
11268;BME280;49397;47.474;9.416;2022-12-10T07:51:02;94131.38;;;1.35;100.00
11268;BME280;49397;47.474;9.416;2022-12-10T07:53:28;94136.56;;;1.27;100.00
11268;BME280;49397;47.474;9.416;2022-12-10T07:55:54;94135.13;;;1.34;100.00
11268;BME280;49397;47.474;9.416;2022-12-10T07:58:20;94137.88;;;1.29;100.00
11268;BME280;49397;47.474;9.416;2022-12-10T08:00:46;94143.13;;;1.34;100.00
11268;BME280;49397;47.474;9.416;2022-12-10T08:03:11;94147.94;;;1.37;100.00
11268;BME280;49397;47.474;9.416;2022-12-10T08:05:37;94142.34;;;1.34;100.00
11268;BME280;49397;47.474;9.416;2022-12-10T08:08:03;94148.28;;;1.31;100.00
11268;BME280;49397;47.474;9.416;2022-12-10T08:10:28;94143.22;;;1.29;100.00
11268;BME280;49397;47.474;9.416;2022-12-10T08:12:54;94150.66;;;1.32;100.00
11268;BME280;49397;47.474;9.416;2022-12-10T08:15:19;94143.38;;;1.38;100.00
11268;BME280;49397;47.474;9.416;2022-12-10T08:17:45;94141.94;;;1.45;100.00
11268;BME280;49397;47.474;9.416;2022-12-10T08:20:11;94131.38;;;1.35;100.00
11268;BME280;49397;47.474;9.416;2022-12-10T08:22:36;94125.53;;;1.33;100.00
11268;BME280;49397;47.474;9.416;2022-12-10T08:25:03;94144.16;;;1.38;100.00
11268;BME280;49397;47.474;9.416;2022-12-10T08:27:28;94145.31;;;1.32;100.00
11268;BME280;49397;47.474;9.416;2022-12-10T08:29:54;94156.84;;;1.28;100.00
11268;BME280;49397;47.474;9.416;2022-12-10T08:32:19;94157.06;;;1.31;100.00
11268;BME280;49397;47.474;9.416;2022-12-10T08:34:44;94160.25;;;1.33;100.00
11268;BME280;49397;47.474;9.416;2022-12-10T08:37:10;94172.38;;;1.26;100.00
11268;BME280;49397;47.474;9.416;2022-12-10T08:39:36;94166.50;;;1.24;100.00
11268;BME280;49397;47.474;9.416;2022-12-10T08:42:01;94174.50;;;1.24;100.00
11268;BME280;49397;47.474;9.416;2022-12-10T08:44:27;94155.72;;;1.10;100.00
11268;BME280;49397;47.474;9.416;2022-12-10T08:46:52;94163.72;;;1.10;100.00
11268;BME280;49397;47.474;9.416;2022-12-10T08:49:18;94159.34;;;1.19;100.00
11268;BME280;49397;47.474;9.416;2022-12-10T08:51:43;94160.78;;;1.35;100.00
11268;BME280;49397;47.474;9.416;2022-12-10T08:54:09;94153.91;;;1.29;100.00
11268;BME280;49397;47.474;9.416;2022-12-10T08:56:35;94163.44;;;1.35;100.00
11268;BME280;49397;47.474;9.416;2022-12-10T08:59:00;94168.50;;;1.37;100.00
11268;BME280;49397;47.474;9.416;2022-12-10T09:01:26;94153.91;;;1.29;100.00
11268;BME280;49397;47.474;9.416;2022-12-10T09:03:51;94160.53;;;1.32;100.00
11268;BME280;49397;47.474;9.416;2022-12-10T09:06:19;94181.28;;;1.40;100.00
11268;BME280;49397;47.474;9.416;2022-12-10T09:08:45;94198.19;;;1.35;100.00
11268;BME280;49397;47.474;9.416;2022-12-10T09:11:34;94189.75;;;1.23;100.00
11268;BME280;49397;47.474;9.416;2022-12-10T09:14:00;94190.44;;;1.34;100.00
11268;BME280;49397;47.474;9.416;2022-12-10T09:16:31;94190.69;;;1.37;100.00
11268;BME280;49397;47.474;9.416;2022-12-10T09:18:57;94190.44;;;1.34;100.00
11268;BME280;49397;47.474;9.416;2022-12-10T09:21:23;94189.03;;;1.41;100.00
11268;BME280;49397;47.474;9.416;2022-12-10T09:23:49;94192.53;;;1.37;100.00
11268;BME280;49397;47.474;9.416;2022-12-10T09:26:15;94191.50;;;1.33;100.00
11268;BME280;49397;47.474;9.416;2022-12-10T09:28:42;94201.81;;;1.44;100.00
11268;BME280;49397;47.474;9.416;2022-12-10T09:31:08;94200.81;;;1.40;100.00
11268;BME280;49397;47.474;9.416;2022-12-10T09:33:35;94192.06;;;1.30;100.00
11268;BME280;49397;47.474;9.416;2022-12-10T09:36:06;94184.91;;;1.25;100.00
11268;BME280;49397;47.474;9.416;2022-12-10T09:38:36;94209.81;;;1.44;100.00
11268;BME280;49397;47.474;9.416;2022-12-10T09:41:47;94215.75;;;1.41;100.00
11268;BME280;49397;47.474;9.416;2022-12-10T09:44:02;94209.03;;;1.44;100.00
11268;BME280;49397;47.474;9.416;2022-12-10T09:46:52;94226.03;;;1.53;100.00
11268;BME280;49397;47.474;9.416;2022-12-10T09:52:16;94222.66;;;1.42;100.00
11268;BME280;49397;47.474;9.416;2022-12-10T09:54:48;94224.69;;;1.27;100.00
11268;BME280;49397;47.474;9.416;2022-12-10T09:57:33;94214.34;;;1.20;100.00
11268;BME280;49397;47.474;9.416;2022-12-10T10:00:18;94226.41;;;1.18;100.00
11268;BME280;49397;47.474;9.416;2022-12-10T10:02:44;94220.81;;;1.14;100.00
11268;BME280;49397;47.474;9.416;2022-12-10T10:05:19;94225.31;;;1.19;100.00
11268;BME280;49397;47.474;9.416;2022-12-10T10:07:49;94235.53;;;1.12;100.00
11268;BME280;49397;47.474;9.416;2022-12-10T10:10:34;94237.19;;;1.03;100.00
11268;BME280;49397;47.474;9.416;2022-12-10T10:13:40;94236.31;;;1.12;100.00
11268;BME280;49397;47.474;9.416;2022-12-10T10:16:34;94233.50;;;0.99;100.00
11268;BME280;49397;47.474;9.416;2022-12-10T10:19:05;94220.72;;;0.96;100.00
11268;BME280;49397;47.474;9.416;2022-12-10T10:21:37;94228.78;;;1.19;100.00
11268;BME280;49397;47.474;9.416;2022-12-10T10:24:05;94238.50;;;1.10;100.00
11268;BME280;49397;47.474;9.416;2022-12-10T10:26:32;94235.09;;;1.00;100.00
11268;BME280;49397;47.474;9.416;2022-12-10T10:29:04;94235.00;;;1.10;100.00
11268;BME280;49397;47.474;9.416;2022-12-10T10:31:33;94234.41;;;1.18;100.00
11268;BME280;49397;47.474;9.416;2022-12-10T10:34:06;94243.59;;;1.07;100.00
11268;BME280;49397;47.474;9.416;2022-12-10T10:36:38;94258.09;;;0.96;100.00
11268;BME280;49397;47.474;9.416;2022-12-10T10:41:45;94252.81;;;0.91;100.00
11268;BME280;49397;47.474;9.416;2022-12-10T10:44:20;94254.56;;;1.05;100.00
11268;BME280;49397;47.474;9.416;2022-12-10T10:46:52;94250.84;;;1.01;100.00
11268;BME280;49397;47.474;9.416;2022-12-10T10:49:25;94254.78;;;1.09;100.00
11268;BME280;49397;47.474;9.416;2022-12-10T10:51:52;94250.09;;;0.96;100.00
11268;BME280;49397;47.474;9.416;2022-12-10T10:54:43;94249.69;;;2.67;100.00
11268;BME280;49397;47.474;9.416;2022-12-10T10:57:25;94252.44;;;1.83;100.00
11268;BME280;49397;47.474;9.416;2022-12-10T10:59:54;94254.06;;;1.55;100.00
11268;BME280;49397;47.474;9.416;2022-12-10T11:02:27;94262.94;;;1.51;100.00
11268;BME280;49397;47.474;9.416;2022-12-10T11:04:55;94248.31;;;1.43;100.00
11268;BME280;49397;47.474;9.416;2022-12-10T11:07:38;94247.81;;;1.41;100.00
11268;BME280;49397;47.474;9.416;2022-12-10T11:10:20;94250.53;;;1.36;100.00
11268;BME280;49397;47.474;9.416;2022-12-10T11:12:58;94257.13;;;1.44;100.00
11268;BME280;49397;47.474;9.416;2022-12-10T11:15:35;94263.47;;;1.53;100.00
11268;BME280;49397;47.474;9.416;2022-12-10T11:18:02;94249.53;;;1.56;100.00
11268;BME280;49397;47.474;9.416;2022-12-10T11:20:33;94270.28;;;1.64;100.00
11268;BME280;49397;47.474;9.416;2022-12-10T11:23:01;94264.31;;;1.72;100.00
11268;BME280;49397;47.474;9.416;2022-12-10T11:34:31;94265.66;;;1.46;100.00
11268;BME280;49397;47.474;9.416;2022-12-10T11:50:42;94283.09;;;1.10;100.00
11268;BME280;49397;47.474;9.416;2022-12-10T11:53:19;94284.72;;;1.06;100.00
11268;BME280;49397;47.474;9.416;2022-12-10T11:55:59;94277.75;;;1.10;100.00
11268;BME280;49397;47.474;9.416;2022-12-10T12:02:04;94284.97;;;1.04;100.00
11268;BME280;49397;47.474;9.416;2022-12-10T12:10:21;94295.50;;;0.91;100.00
11268;BME280;49397;47.474;9.416;2022-12-10T12:18:23;94298.41;;;0.99;100.00
11268;BME280;49397;47.474;9.416;2022-12-10T12:20:59;94302.16;;;0.93;100.00
11268;BME280;49397;47.474;9.416;2022-12-10T12:23:55;94314.19;;;0.96;100.00
11268;BME280;49397;47.474;9.416;2022-12-10T12:26:27;94322.47;;;0.94;100.00
11268;BME280;49397;47.474;9.416;2022-12-10T12:29:09;94319.53;;;0.91;100.00
11268;BME280;49397;47.474;9.416;2022-12-10T12:31:39;94308.72;;;0.72;100.00
11268;BME280;49397;47.474;9.416;2022-12-10T12:34:21;94318.78;;;0.85;100.00
11268;BME280;49397;47.474;9.416;2022-12-10T12:36:50;94317.13;;;0.94;100.00
11268;BME280;49397;47.474;9.416;2022-12-10T12:39:21;94326.16;;;0.98;100.00
11268;BME280;49397;47.474;9.416;2022-12-10T12:42:17;94323.00;;;0.96;100.00
11268;BME280;49397;47.474;9.416;2022-12-10T12:45:10;94329.94;;;0.92;100.00
11268;BME280;49397;47.474;9.416;2022-12-10T12:47:43;94342.59;;;0.77;100.00
11268;BME280;49397;47.474;9.416;2022-12-10T12:50:25;94338.63;;;0.74;100.00
11268;BME280;49397;47.474;9.416;2022-12-10T12:52:57;94348.47;;;0.79;100.00
11268;BME280;49397;47.474;9.416;2022-12-10T12:55:31;94354.84;;;0.78;100.00
11268;BME280;49397;47.474;9.416;2022-12-10T12:58:22;94353.81;;;0.79;100.00
11268;BME280;49397;47.474;9.416;2022-12-10T13:00:53;94356.97;;;0.81;100.00
11268;BME280;49397;47.474;9.416;2022-12-10T13:03:40;94355.09;;;0.81;100.00
11268;BME280;49397;47.474;9.416;2022-12-10T13:08:49;94357.03;;;0.76;100.00
11268;BME280;49397;47.474;9.416;2022-12-10T13:11:18;94367.16;;;0.74;100.00
11268;BME280;49397;47.474;9.416;2022-12-10T13:29:54;94393.88;;;0.74;100.00
11268;BME280;49397;47.474;9.416;2022-12-10T13:37:32;94399.50;;;0.62;100.00
11268;BME280;49397;47.474;9.416;2022-12-10T13:40:14;94402.50;;;0.51;100.00
11268;BME280;49397;47.474;9.416;2022-12-10T13:42:44;94412.13;;;0.52;100.00
11268;BME280;49397;47.474;9.416;2022-12-10T13:45:34;94426.22;;;0.52;100.00
11268;BME280;49397;47.474;9.416;2022-12-10T13:48:25;94424.91;;;0.55;100.00
11268;BME280;49397;47.474;9.416;2022-12-10T13:51:26;94425.66;;;0.60;100.00
11268;BME280;49397;47.474;9.416;2022-12-10T13:54:05;94418.78;;;0.49;100.00
11268;BME280;49397;47.474;9.416;2022-12-10T13:57:13;94439.34;;;0.44;100.00
11268;BME280;49397;47.474;9.416;2022-12-10T14:07:27;94451.06;;;0.48;100.00
11268;BME280;49397;47.474;9.416;2022-12-10T14:09:55;94445.44;;;0.49;100.00
11268;BME280;49397;47.474;9.416;2022-12-10T14:12:36;94446.31;;;0.35;100.00
11268;BME280;49397;47.474;9.416;2022-12-10T14:15:07;94443.09;;;0.38;100.00
11268;BME280;49397;47.474;9.416;2022-12-10T14:17:39;94460.22;;;0.32;100.00
11268;BME280;49397;47.474;9.416;2022-12-10T14:20:07;94464.72;;;0.31;100.00
11268;BME280;49397;47.474;9.416;2022-12-10T14:22:37;94469.53;;;0.24;100.00
11268;BME280;49397;47.474;9.416;2022-12-10T14:25:15;94475.94;;;0.23;100.00
11268;BME280;49397;47.474;9.416;2022-12-10T14:27:44;94479.38;;;0.29;100.00
11268;BME280;49397;47.474;9.416;2022-12-10T14:30:25;94489.28;;;0.28;100.00
11268;BME280;49397;47.474;9.416;2022-12-10T14:32:56;94491.69;;;0.25;100.00
11268;BME280;49397;47.474;9.416;2022-12-10T14:35:26;94489.00;;;0.35;100.00
11268;BME280;49397;47.474;9.416;2022-12-10T14:37:55;94497.00;;;0.35;100.00
11268;BME280;49397;47.474;9.416;2022-12-10T14:40:37;94493.78;;;0.38;100.00
11268;BME280;49397;47.474;9.416;2022-12-10T14:43:06;94490.59;;;0.36;100.00
11268;BME280;49397;47.474;9.416;2022-12-10T14:45:45;94495.13;;;0.30;100.00
11268;BME280;49397;47.474;9.416;2022-12-10T14:48:13;94505.50;;;0.37;100.00
11268;BME280;49397;47.474;9.416;2022-12-10T14:50:38;94512.75;;;0.36;100.00